sensor_id;sensor_type;location;lat;lon;timestamp;P1;durP1;ratioP1;P2;durP2;ratioP2
58272;SDS011;44075;42.436;18.514;2022-09-09T00:00:25;11.05;;;8.38;;
58272;SDS011;44075;42.436;18.514;2022-09-09T00:03:35;11.95;;;8.35;;
58272;SDS011;44075;42.436;18.514;2022-09-09T00:06:28;12.50;;;7.72;;
58272;SDS011;44075;42.436;18.514;2022-09-09T00:08:41;12.05;;;7.40;;
58272;SDS011;44075;42.436;18.514;2022-09-09T00:11:12;12.05;;;8.13;;
58272;SDS011;44075;42.436;18.514;2022-09-09T00:13:48;12.38;;;7.65;;
58272;SDS011;44075;42.436;18.514;2022-09-09T00:16:19;12.27;;;8.55;;
58272;SDS011;44075;42.436;18.514;2022-09-09T00:21:23;11.05;;;8.05;;
58272;SDS011;44075;42.436;18.514;2022-09-09T00:23:51;10.00;;;8.13;;
58272;SDS011;44075;42.436;18.514;2022-09-09T00:31:29;11.82;;;7.88;;
58272;SDS011;44075;42.436;18.514;2022-09-09T00:34:03;12.00;;;8.07;;
58272;SDS011;44075;42.436;18.514;2022-09-09T00:39:00;12.05;;;7.47;;
58272;SDS011;44075;42.436;18.514;2022-09-09T00:43:55;11.23;;;7.45;;
58272;SDS011;44075;42.436;18.514;2022-09-09T00:54:48;13.57;;;8.02;;
58272;SDS011;44075;42.436;18.514;2022-09-09T00:57:26;12.00;;;8.07;;
58272;SDS011;44075;42.436;18.514;2022-09-09T01:05:28;10.00;;;6.95;;
58272;SDS011;44075;42.436;18.514;2022-09-09T01:07:55;13.60;;;8.25;;
58272;SDS011;44075;42.436;18.514;2022-09-09T01:13:11;11.73;;;6.68;;
58272;SDS011;44075;42.436;18.514;2022-09-09T01:15:43;9.95;;;6.80;;
58272;SDS011;44075;42.436;18.514;2022-09-09T01:18:12;10.02;;;6.65;;
58272;SDS011;44075;42.436;18.514;2022-09-09T01:20:43;9.45;;;6.93;;
58272;SDS011;44075;42.436;18.514;2022-09-09T01:26:21;11.43;;;7.15;;
58272;SDS011;44075;42.436;18.514;2022-09-09T01:28:49;10.27;;;7.03;;
58272;SDS011;44075;42.436;18.514;2022-09-09T01:31:34;12.48;;;7.03;;
58272;SDS011;44075;42.436;18.514;2022-09-09T01:34:02;10.20;;;7.32;;
58272;SDS011;44075;42.436;18.514;2022-09-09T01:36:35;10.50;;;6.78;;
58272;SDS011;44075;42.436;18.514;2022-09-09T01:39:04;10.82;;;7.70;;
58272;SDS011;44075;42.436;18.514;2022-09-09T01:41:31;13.23;;;7.25;;
58272;SDS011;44075;42.436;18.514;2022-09-09T01:43:57;12.07;;;7.68;;
58272;SDS011;44075;42.436;18.514;2022-09-09T01:46:23;11.40;;;7.20;;
58272;SDS011;44075;42.436;18.514;2022-09-09T01:48:52;11.30;;;7.50;;
58272;SDS011;44075;42.436;18.514;2022-09-09T01:51:18;10.35;;;7.18;;
58272;SDS011;44075;42.436;18.514;2022-09-09T01:53:45;12.52;;;7.80;;
58272;SDS011;44075;42.436;18.514;2022-09-09T01:56:20;11.55;;;7.28;;
58272;SDS011;44075;42.436;18.514;2022-09-09T02:04:03;14.45;;;7.97;;
58272;SDS011;44075;42.436;18.514;2022-09-09T02:06:36;10.40;;;6.90;;
58272;SDS011;44075;42.436;18.514;2022-09-09T02:09:07;13.75;;;8.30;;
58272;SDS011;44075;42.436;18.514;2022-09-09T02:11:33;14.00;;;7.35;;
58272;SDS011;44075;42.436;18.514;2022-09-09T02:14:01;10.30;;;7.10;;
58272;SDS011;44075;42.436;18.514;2022-09-09T02:16:37;11.90;;;7.45;;
58272;SDS011;44075;42.436;18.514;2022-09-09T02:21:49;14.27;;;7.85;;
58272;SDS011;44075;42.436;18.514;2022-09-09T02:24:19;11.82;;;7.95;;
58272;SDS011;44075;42.436;18.514;2022-09-09T02:26:45;14.77;;;8.50;;
58272;SDS011;44075;42.436;18.514;2022-09-09T02:29:14;13.85;;;8.38;;
58272;SDS011;44075;42.436;18.514;2022-09-09T02:31:44;14.10;;;8.55;;
58272;SDS011;44075;42.436;18.514;2022-09-09T02:34:12;11.93;;;7.80;;
58272;SDS011;44075;42.436;18.514;2022-09-09T02:36:40;12.23;;;8.00;;
58272;SDS011;44075;42.436;18.514;2022-09-09T02:39:08;17.05;;;9.30;;
58272;SDS011;44075;42.436;18.514;2022-09-09T02:41:37;14.45;;;9.05;;
58272;SDS011;44075;42.436;18.514;2022-09-09T02:44:14;16.13;;;9.07;;
58272;SDS011;44075;42.436;18.514;2022-09-09T02:49:49;14.27;;;8.80;;
58272;SDS011;44075;42.436;18.514;2022-09-09T02:52:32;14.07;;;8.85;;
58272;SDS011;44075;42.436;18.514;2022-09-09T02:54:59;14.07;;;9.10;;
58272;SDS011;44075;42.436;18.514;2022-09-09T02:57:30;13.40;;;8.50;;
58272;SDS011;44075;42.436;18.514;2022-09-09T02:59:57;15.48;;;8.90;;
58272;SDS011;44075;42.436;18.514;2022-09-09T03:02:25;15.00;;;8.73;;
58272;SDS011;44075;42.436;18.514;2022-09-09T03:04:51;15.80;;;9.57;;
58272;SDS011;44075;42.436;18.514;2022-09-09T03:07:18;14.43;;;9.13;;
58272;SDS011;44075;42.436;18.514;2022-09-09T03:09:45;13.63;;;9.38;;
58272;SDS011;44075;42.436;18.514;2022-09-09T03:12:20;14.82;;;9.98;;
58272;SDS011;44075;42.436;18.514;2022-09-09T03:14:46;17.17;;;9.88;;
58272;SDS011;44075;42.436;18.514;2022-09-09T03:17:12;19.83;;;9.73;;
58272;SDS011;44075;42.436;18.514;2022-09-09T03:19:38;15.68;;;9.02;;
58272;SDS011;44075;42.436;18.514;2022-09-09T03:22:04;13.57;;;9.55;;
58272;SDS011;44075;42.436;18.514;2022-09-09T03:24:33;18.95;;;10.52;;
58272;SDS011;44075;42.436;18.514;2022-09-09T03:26:59;26.90;;;13.70;;
58272;SDS011;44075;42.436;18.514;2022-09-09T03:29:26;23.73;;;13.07;;
58272;SDS011;44075;42.436;18.514;2022-09-09T03:31:52;21.73;;;12.88;;
58272;SDS011;44075;42.436;18.514;2022-09-09T03:34:25;18.75;;;11.88;;
58272;SDS011;44075;42.436;18.514;2022-09-09T03:36:51;19.85;;;12.88;;
58272;SDS011;44075;42.436;18.514;2022-09-09T03:39:17;20.42;;;12.77;;
58272;SDS011;44075;42.436;18.514;2022-09-09T03:41:43;23.23;;;13.07;;
58272;SDS011;44075;42.436;18.514;2022-09-09T03:44:10;21.65;;;13.23;;
58272;SDS011;44075;42.436;18.514;2022-09-09T03:46:36;18.17;;;13.38;;
58272;SDS011;44075;42.436;18.514;2022-09-09T03:49:03;22.50;;;12.38;;
58272;SDS011;44075;42.436;18.514;2022-09-09T03:51:29;21.75;;;13.38;;
58272;SDS011;44075;42.436;18.514;2022-09-09T03:53:55;19.08;;;12.82;;
58272;SDS011;44075;42.436;18.514;2022-09-09T03:56:23;21.15;;;13.07;;
58272;SDS011;44075;42.436;18.514;2022-09-09T03:58:49;21.70;;;13.52;;
58272;SDS011;44075;42.436;18.514;2022-09-09T04:01:18;19.30;;;12.80;;
58272;SDS011;44075;42.436;18.514;2022-09-09T04:03:51;22.30;;;13.65;;
58272;SDS011;44075;42.436;18.514;2022-09-09T04:06:18;22.48;;;13.77;;
58272;SDS011;44075;42.436;18.514;2022-09-09T04:08:46;20.70;;;13.18;;
58272;SDS011;44075;42.436;18.514;2022-09-09T04:13:53;17.42;;;13.32;;
58272;SDS011;44075;42.436;18.514;2022-09-09T04:16:22;19.17;;;12.90;;
58272;SDS011;44075;42.436;18.514;2022-09-09T04:18:51;19.80;;;13.07;;
58272;SDS011;44075;42.436;18.514;2022-09-09T04:21:18;20.10;;;13.00;;
58272;SDS011;44075;42.436;18.514;2022-09-09T04:23:44;21.52;;;13.52;;
58272;SDS011;44075;42.436;18.514;2022-09-09T04:26:10;17.45;;;12.73;;
58272;SDS011;44075;42.436;18.514;2022-09-09T04:28:36;16.90;;;13.10;;
58272;SDS011;44075;42.436;18.514;2022-09-09T04:31:16;21.33;;;13.38;;
58272;SDS011;44075;42.436;18.514;2022-09-09T04:33:46;19.13;;;12.77;;
58272;SDS011;44075;42.436;18.514;2022-09-09T04:36:22;19.73;;;13.23;;
58272;SDS011;44075;42.436;18.514;2022-09-09T04:38:48;19.27;;;14.02;;
58272;SDS011;44075;42.436;18.514;2022-09-09T04:41:14;18.00;;;13.40;;
58272;SDS011;44075;42.436;18.514;2022-09-09T04:43:44;21.25;;;14.00;;
58272;SDS011;44075;42.436;18.514;2022-09-09T04:46:10;17.30;;;12.73;;
58272;SDS011;44075;42.436;18.514;2022-09-09T04:48:36;17.92;;;12.73;;
58272;SDS011;44075;42.436;18.514;2022-09-09T04:51:08;17.52;;;10.15;;
58272;SDS011;44075;42.436;18.514;2022-09-09T04:53:34;5.53;;;1.70;;
58272;SDS011;44075;42.436;18.514;2022-09-09T04:56:03;4.57;;;1.13;;
58272;SDS011;44075;42.436;18.514;2022-09-09T04:58:29;3.60;;;1.00;;
58272;SDS011;44075;42.436;18.514;2022-09-09T05:01:02;4.35;;;1.00;;
58272;SDS011;44075;42.436;18.514;2022-09-09T05:03:28;3.30;;;0.98;;
58272;SDS011;44075;42.436;18.514;2022-09-09T05:06:13;3.90;;;1.10;;
58272;SDS011;44075;42.436;18.514;2022-09-09T05:08:40;3.75;;;1.00;;
58272;SDS011;44075;42.436;18.514;2022-09-09T05:14:02;4.50;;;1.30;;
58272;SDS011;44075;42.436;18.514;2022-09-09T05:16:28;8.55;;;1.73;;
58272;SDS011;44075;42.436;18.514;2022-09-09T05:19:01;6.35;;;1.70;;
58272;SDS011;44075;42.436;18.514;2022-09-09T05:21:31;6.10;;;1.52;;
58272;SDS011;44075;42.436;18.514;2022-09-09T05:23:57;6.95;;;2.20;;
58272;SDS011;44075;42.436;18.514;2022-09-09T05:26:23;7.13;;;1.92;;
58272;SDS011;44075;42.436;18.514;2022-09-09T05:28:49;5.47;;;1.40;;
58272;SDS011;44075;42.436;18.514;2022-09-09T05:33:47;22.45;;;5.35;;
58272;SDS011;44075;42.436;18.514;2022-09-09T05:36:23;13.05;;;3.20;;
58272;SDS011;44075;42.436;18.514;2022-09-09T05:46:35;83.13;;;13.75;;
58272;SDS011;44075;42.436;18.514;2022-09-09T05:49:02;62.08;;;13.23;;
58272;SDS011;44075;42.436;18.514;2022-09-09T05:51:30;32.80;;;9.02;;
58272;SDS011;44075;42.436;18.514;2022-09-09T05:53:59;47.03;;;13.60;;
58272;SDS011;44075;42.436;18.514;2022-09-09T05:56:26;102.90;;;14.80;;
58272;SDS011;44075;42.436;18.514;2022-09-09T05:59:15;105.47;;;16.88;;
58272;SDS011;44075;42.436;18.514;2022-09-09T06:01:41;104.38;;;20.35;;
58272;SDS011;44075;42.436;18.514;2022-09-09T06:04:07;73.13;;;13.05;;
58272;SDS011;44075;42.436;18.514;2022-09-09T06:06:35;48.35;;;9.60;;
58272;SDS011;44075;42.436;18.514;2022-09-09T06:09:05;53.08;;;10.52;;
58272;SDS011;44075;42.436;18.514;2022-09-09T06:11:34;49.63;;;9.95;;
58272;SDS011;44075;42.436;18.514;2022-09-09T06:14:01;34.42;;;6.45;;
58272;SDS011;44075;42.436;18.514;2022-09-09T06:16:28;47.50;;;8.38;;
58272;SDS011;44075;42.436;18.514;2022-09-09T06:18:54;36.75;;;7.60;;
58272;SDS011;44075;42.436;18.514;2022-09-09T06:21:25;39.00;;;7.20;;
58272;SDS011;44075;42.436;18.514;2022-09-09T06:23:57;37.42;;;7.30;;
58272;SDS011;44075;42.436;18.514;2022-09-09T06:26:33;36.47;;;7.72;;
58272;SDS011;44075;42.436;18.514;2022-09-09T06:29:04;42.13;;;8.00;;
58272;SDS011;44075;42.436;18.514;2022-09-09T06:31:39;31.45;;;6.28;;
58272;SDS011;44075;42.436;18.514;2022-09-09T06:34:09;35.47;;;7.55;;
58272;SDS011;44075;42.436;18.514;2022-09-09T06:36:37;27.38;;;5.15;;
58272;SDS011;44075;42.436;18.514;2022-09-09T06:39:03;21.08;;;4.45;;
58272;SDS011;44075;42.436;18.514;2022-09-09T06:41:30;17.13;;;3.20;;
58272;SDS011;44075;42.436;18.514;2022-09-09T06:43:57;15.45;;;2.63;;
58272;SDS011;44075;42.436;18.514;2022-09-09T06:46:24;12.43;;;1.70;;
58272;SDS011;44075;42.436;18.514;2022-09-09T06:48:54;8.27;;;1.77;;
58272;SDS011;44075;42.436;18.514;2022-09-09T06:51:22;13.77;;;3.03;;
58272;SDS011;44075;42.436;18.514;2022-09-09T06:53:52;7.80;;;3.45;;
58272;SDS011;44075;42.436;18.514;2022-09-09T06:58:44;6.55;;;1.20;;
58272;SDS011;44075;42.436;18.514;2022-09-09T07:01:15;5.25;;;1.30;;
58272;SDS011;44075;42.436;18.514;2022-09-09T07:03:44;6.20;;;1.60;;
58272;SDS011;44075;42.436;18.514;2022-09-09T07:06:13;6.88;;;1.60;;
58272;SDS011;44075;42.436;18.514;2022-09-09T07:08:43;9.02;;;1.83;;
58272;SDS011;44075;42.436;18.514;2022-09-09T07:14:01;8.93;;;1.80;;
58272;SDS011;44075;42.436;18.514;2022-09-09T07:16:27;7.50;;;1.85;;
58272;SDS011;44075;42.436;18.514;2022-09-09T07:18:54;7.38;;;1.98;;
58272;SDS011;44075;42.436;18.514;2022-09-09T07:21:23;7.65;;;1.70;;
58272;SDS011;44075;42.436;18.514;2022-09-09T07:23:49;6.85;;;2.17;;
58272;SDS011;44075;42.436;18.514;2022-09-09T07:26:17;7.00;;;1.88;;
58272;SDS011;44075;42.436;18.514;2022-09-09T07:28:48;6.10;;;1.88;;
58272;SDS011;44075;42.436;18.514;2022-09-09T07:31:17;6.35;;;1.60;;
58272;SDS011;44075;42.436;18.514;2022-09-09T07:33:47;7.18;;;1.90;;
58272;SDS011;44075;42.436;18.514;2022-09-09T07:36:17;7.90;;;1.70;;
58272;SDS011;44075;42.436;18.514;2022-09-09T07:38:53;6.90;;;1.90;;
58272;SDS011;44075;42.436;18.514;2022-09-09T07:41:21;7.18;;;2.08;;
58272;SDS011;44075;42.436;18.514;2022-09-09T07:43:47;8.07;;;1.65;;
58272;SDS011;44075;42.436;18.514;2022-09-09T07:46:14;8.00;;;1.90;;
58272;SDS011;44075;42.436;18.514;2022-09-09T07:48:45;9.05;;;2.35;;
58272;SDS011;44075;42.436;18.514;2022-09-09T07:51:15;9.02;;;2.15;;
58272;SDS011;44075;42.436;18.514;2022-09-09T07:53:42;8.90;;;1.92;;
58272;SDS011;44075;42.436;18.514;2022-09-09T07:56:10;8.85;;;1.98;;
58272;SDS011;44075;42.436;18.514;2022-09-09T07:58:44;8.80;;;2.83;;
58272;SDS011;44075;42.436;18.514;2022-09-09T08:01:12;8.98;;;2.10;;
58272;SDS011;44075;42.436;18.514;2022-09-09T08:03:39;8.00;;;2.10;;
58272;SDS011;44075;42.436;18.514;2022-09-09T08:06:06;9.38;;;2.53;;
58272;SDS011;44075;42.436;18.514;2022-09-09T08:08:33;10.43;;;2.53;;
58272;SDS011;44075;42.436;18.514;2022-09-09T08:11:07;10.57;;;2.60;;
58272;SDS011;44075;42.436;18.514;2022-09-09T08:13:35;10.30;;;2.72;;
58272;SDS011;44075;42.436;18.514;2022-09-09T08:16:05;9.02;;;2.35;;
58272;SDS011;44075;42.436;18.514;2022-09-09T08:18:32;7.72;;;2.47;;
58272;SDS011;44075;42.436;18.514;2022-09-09T08:20:58;6.88;;;2.47;;
58272;SDS011;44075;42.436;18.514;2022-09-09T08:23:33;10.38;;;2.33;;
58272;SDS011;44075;42.436;18.514;2022-09-09T08:26:25;6.70;;;1.75;;
58272;SDS011;44075;42.436;18.514;2022-09-09T08:28:50;9.32;;;2.72;;
58272;SDS011;44075;42.436;18.514;2022-09-09T08:31:24;10.13;;;4.53;;
58272;SDS011;44075;42.436;18.514;2022-09-09T08:33:51;8.07;;;2.15;;
58272;SDS011;44075;42.436;18.514;2022-09-09T08:36:18;7.97;;;2.85;;
58272;SDS011;44075;42.436;18.514;2022-09-09T08:38:47;8.32;;;2.50;;
58272;SDS011;44075;42.436;18.514;2022-09-09T08:43:45;9.02;;;2.15;;
58272;SDS011;44075;42.436;18.514;2022-09-09T08:46:24;8.25;;;2.30;;
58272;SDS011;44075;42.436;18.514;2022-09-09T08:51:27;8.00;;;2.10;;
58272;SDS011;44075;42.436;18.514;2022-09-09T08:53:54;7.72;;;2.00;;
58272;SDS011;44075;42.436;18.514;2022-09-09T08:56:23;7.20;;;2.08;;
58272;SDS011;44075;42.436;18.514;2022-09-09T08:58:51;8.05;;;2.20;;
58272;SDS011;44075;42.436;18.514;2022-09-09T09:01:30;8.25;;;2.55;;
58272;SDS011;44075;42.436;18.514;2022-09-09T09:09:21;10.05;;;2.42;;
58272;SDS011;44075;42.436;18.514;2022-09-09T09:12:00;9.38;;;2.20;;
58272;SDS011;44075;42.436;18.514;2022-09-09T09:14:34;8.02;;;2.10;;
58272;SDS011;44075;42.436;18.514;2022-09-09T09:17:03;7.32;;;1.95;;
58272;SDS011;44075;42.436;18.514;2022-09-09T09:19:38;7.60;;;2.75;;
58272;SDS011;44075;42.436;18.514;2022-09-09T10:02:46;8.35;;;2.08;;
58272;SDS011;44075;42.436;18.514;2022-09-09T10:05:26;7.32;;;2.30;;
58272;SDS011;44075;42.436;18.514;2022-09-09T10:08:13;9.15;;;2.58;;
58272;SDS011;44075;42.436;18.514;2022-09-09T10:10:50;11.82;;;2.65;;
58272;SDS011;44075;42.436;18.514;2022-09-09T10:13:21;8.27;;;2.30;;
58272;SDS011;44075;42.436;18.514;2022-09-09T10:15:53;7.03;;;2.35;;
58272;SDS011;44075;42.436;18.514;2022-09-09T10:18:36;9.18;;;2.33;;
58272;SDS011;44075;42.436;18.514;2022-09-09T10:21:16;6.68;;;1.98;;
58272;SDS011;44075;42.436;18.514;2022-09-09T10:39:59;8.10;;;2.00;;
58272;SDS011;44075;42.436;18.514;2022-09-09T10:42:30;7.05;;;2.50;;
58272;SDS011;44075;42.436;18.514;2022-09-09T10:45:00;8.75;;;2.72;;
58272;SDS011;44075;42.436;18.514;2022-09-09T10:55:39;8.75;;;2.78;;
58272;SDS011;44075;42.436;18.514;2022-09-09T10:58:09;9.43;;;2.55;;
58272;SDS011;44075;42.436;18.514;2022-09-09T11:03:05;8.35;;;2.53;;
58272;SDS011;44075;42.436;18.514;2022-09-09T11:05:43;8.30;;;2.30;;
58272;SDS011;44075;42.436;18.514;2022-09-09T11:18:36;6.60;;;2.55;;
58272;SDS011;44075;42.436;18.514;2022-09-09T11:21:04;8.27;;;2.25;;
58272;SDS011;44075;42.436;18.514;2022-09-09T11:23:39;8.90;;;2.25;;
58272;SDS011;44075;42.436;18.514;2022-09-09T11:26:07;6.28;;;2.25;;
58272;SDS011;44075;42.436;18.514;2022-09-09T11:28:41;8.63;;;2.40;;
58272;SDS011;44075;42.436;18.514;2022-09-09T11:31:33;8.10;;;2.28;;
58272;SDS011;44075;42.436;18.514;2022-09-09T11:42:15;9.80;;;2.42;;
58272;SDS011;44075;42.436;18.514;2022-09-09T11:44:42;9.25;;;2.40;;
58272;SDS011;44075;42.436;18.514;2022-09-09T11:52:39;6.43;;;2.05;;
58272;SDS011;44075;42.436;18.514;2022-09-09T11:58:03;9.40;;;2.70;;
58272;SDS011;44075;42.436;18.514;2022-09-09T12:00:34;11.27;;;2.70;;
58272;SDS011;44075;42.436;18.514;2022-09-09T12:03:31;8.52;;;3.03;;
58272;SDS011;44075;42.436;18.514;2022-09-09T12:05:51;8.48;;;2.25;;
58272;SDS011;44075;42.436;18.514;2022-09-09T12:08:23;8.00;;;2.33;;
58272;SDS011;44075;42.436;18.514;2022-09-09T12:10:56;8.63;;;2.50;;
58272;SDS011;44075;42.436;18.514;2022-09-09T12:13:24;8.32;;;2.65;;
58272;SDS011;44075;42.436;18.514;2022-09-09T12:15:55;11.50;;;2.63;;
58272;SDS011;44075;42.436;18.514;2022-09-09T12:18:25;7.80;;;2.47;;
58272;SDS011;44075;42.436;18.514;2022-09-09T12:23:42;7.30;;;2.17;;
58272;SDS011;44075;42.436;18.514;2022-09-09T12:28:45;7.38;;;2.58;;
58272;SDS011;44075;42.436;18.514;2022-09-09T12:31:18;9.02;;;2.55;;
58272;SDS011;44075;42.436;18.514;2022-09-09T12:33:54;6.50;;;2.10;;
58272;SDS011;44075;42.436;18.514;2022-09-09T12:36:38;6.50;;;2.30;;
58272;SDS011;44075;42.436;18.514;2022-09-09T12:41:31;6.53;;;2.00;;
58272;SDS011;44075;42.436;18.514;2022-09-09T12:44:04;8.05;;;2.35;;
58272;SDS011;44075;42.436;18.514;2022-09-09T12:46:43;8.65;;;2.58;;
58272;SDS011;44075;42.436;18.514;2022-09-09T12:51:59;6.20;;;2.17;;
58272;SDS011;44075;42.436;18.514;2022-09-09T12:54:26;7.75;;;2.47;;
58272;SDS011;44075;42.436;18.514;2022-09-09T12:56:53;7.88;;;2.58;;
58272;SDS011;44075;42.436;18.514;2022-09-09T12:59:30;8.25;;;2.30;;
58272;SDS011;44075;42.436;18.514;2022-09-09T13:02:00;7.57;;;2.53;;
58272;SDS011;44075;42.436;18.514;2022-09-09T13:04:26;7.80;;;2.63;;
58272;SDS011;44075;42.436;18.514;2022-09-09T13:06:52;8.52;;;2.58;;
58272;SDS011;44075;42.436;18.514;2022-09-09T13:09:20;11.88;;;2.70;;
58272;SDS011;44075;42.436;18.514;2022-09-09T13:11:50;9.15;;;2.67;;
58272;SDS011;44075;42.436;18.514;2022-09-09T13:14:31;7.03;;;2.72;;
58272;SDS011;44075;42.436;18.514;2022-09-09T13:17:00;7.88;;;2.83;;
58272;SDS011;44075;42.436;18.514;2022-09-09T13:19:29;7.00;;;2.10;;
58272;SDS011;44075;42.436;18.514;2022-09-09T13:21:56;6.35;;;2.80;;
58272;SDS011;44075;42.436;18.514;2022-09-09T13:24:32;8.70;;;2.20;;
58272;SDS011;44075;42.436;18.514;2022-09-09T13:27:00;10.05;;;2.78;;
58272;SDS011;44075;42.436;18.514;2022-09-09T13:29:27;5.88;;;2.00;;
58272;SDS011;44075;42.436;18.514;2022-09-09T13:31:54;7.68;;;2.40;;
58272;SDS011;44075;42.436;18.514;2022-09-09T13:34:30;7.22;;;2.47;;
58272;SDS011;44075;42.436;18.514;2022-09-09T13:37:04;7.68;;;2.55;;
58272;SDS011;44075;42.436;18.514;2022-09-09T13:39:34;6.90;;;2.40;;
58272;SDS011;44075;42.436;18.514;2022-09-09T13:42:02;8.90;;;2.38;;
58272;SDS011;44075;42.436;18.514;2022-09-09T13:47:04;8.20;;;2.47;;
58272;SDS011;44075;42.436;18.514;2022-09-09T13:49:31;8.50;;;2.67;;
58272;SDS011;44075;42.436;18.514;2022-09-09T13:52:11;8.73;;;2.45;;
58272;SDS011;44075;42.436;18.514;2022-09-09T13:54:38;6.60;;;2.42;;
58272;SDS011;44075;42.436;18.514;2022-09-09T13:57:05;7.60;;;2.22;;
58272;SDS011;44075;42.436;18.514;2022-09-09T13:59:31;8.65;;;2.38;;
58272;SDS011;44075;42.436;18.514;2022-09-09T14:01:57;9.13;;;2.80;;
58272;SDS011;44075;42.436;18.514;2022-09-09T14:04:24;7.80;;;2.80;;
58272;SDS011;44075;42.436;18.514;2022-09-09T14:06:53;9.25;;;2.88;;
58272;SDS011;44075;42.436;18.514;2022-09-09T14:09:20;9.65;;;2.80;;
58272;SDS011;44075;42.436;18.514;2022-09-09T14:11:46;9.30;;;2.60;;
58272;SDS011;44075;42.436;18.514;2022-09-09T14:14:13;10.25;;;5.40;;
58272;SDS011;44075;42.436;18.514;2022-09-09T14:16:39;9.05;;;3.08;;
58272;SDS011;44075;42.436;18.514;2022-09-09T14:19:05;8.55;;;3.03;;
58272;SDS011;44075;42.436;18.514;2022-09-09T14:21:31;10.43;;;3.25;;
58272;SDS011;44075;42.436;18.514;2022-09-09T14:23:57;9.57;;;2.92;;
58272;SDS011;44075;42.436;18.514;2022-09-09T14:26:23;7.68;;;2.70;;
58272;SDS011;44075;42.436;18.514;2022-09-09T14:28:50;8.65;;;2.67;;
58272;SDS011;44075;42.436;18.514;2022-09-09T14:31:16;8.27;;;2.28;;
58272;SDS011;44075;42.436;18.514;2022-09-09T14:33:43;8.88;;;2.90;;
58272;SDS011;44075;42.436;18.514;2022-09-09T14:36:10;8.52;;;2.70;;
58272;SDS011;44075;42.436;18.514;2022-09-09T14:38:36;10.80;;;2.67;;
58272;SDS011;44075;42.436;18.514;2022-09-09T14:41:09;10.43;;;2.50;;
58272;SDS011;44075;42.436;18.514;2022-09-09T14:43:39;8.73;;;2.70;;
58272;SDS011;44075;42.436;18.514;2022-09-09T14:46:12;8.40;;;3.00;;
58272;SDS011;44075;42.436;18.514;2022-09-09T14:48:39;8.63;;;3.00;;
58272;SDS011;44075;42.436;18.514;2022-09-09T14:51:15;8.10;;;3.08;;
58272;SDS011;44075;42.436;18.514;2022-09-09T14:53:44;10.48;;;3.63;;
58272;SDS011;44075;42.436;18.514;2022-09-09T14:56:29;10.43;;;2.70;;
58272;SDS011;44075;42.436;18.514;2022-09-09T14:58:56;10.65;;;3.38;;
58272;SDS011;44075;42.436;18.514;2022-09-09T15:01:22;7.22;;;2.80;;
58272;SDS011;44075;42.436;18.514;2022-09-09T15:03:50;8.50;;;2.55;;
58272;SDS011;44075;42.436;18.514;2022-09-09T15:06:16;7.50;;;3.00;;
58272;SDS011;44075;42.436;18.514;2022-09-09T15:08:43;7.88;;;2.85;;
58272;SDS011;44075;42.436;18.514;2022-09-09T15:11:10;9.60;;;3.42;;
58272;SDS011;44075;42.436;18.514;2022-09-09T15:13:37;11.48;;;3.35;;
58272;SDS011;44075;42.436;18.514;2022-09-09T15:16:07;10.40;;;3.20;;
58272;SDS011;44075;42.436;18.514;2022-09-09T15:18:34;8.63;;;3.15;;
58272;SDS011;44075;42.436;18.514;2022-09-09T15:21:01;13.27;;;3.92;;
58272;SDS011;44075;42.436;18.514;2022-09-09T15:23:32;11.20;;;3.40;;
58272;SDS011;44075;42.436;18.514;2022-09-09T15:25:59;13.48;;;4.20;;
58272;SDS011;44075;42.436;18.514;2022-09-09T15:28:25;9.07;;;3.15;;
58272;SDS011;44075;42.436;18.514;2022-09-09T15:30:51;8.38;;;2.88;;
58272;SDS011;44075;42.436;18.514;2022-09-09T15:33:19;9.90;;;3.90;;
58272;SDS011;44075;42.436;18.514;2022-09-09T15:35:45;10.85;;;3.40;;
58272;SDS011;44075;42.436;18.514;2022-09-09T15:38:15;12.63;;;3.58;;
58272;SDS011;44075;42.436;18.514;2022-09-09T15:40:42;6.85;;;2.90;;
58272;SDS011;44075;42.436;18.514;2022-09-09T15:43:11;9.70;;;3.30;;
58272;SDS011;44075;42.436;18.514;2022-09-09T15:45:38;10.98;;;3.42;;
58272;SDS011;44075;42.436;18.514;2022-09-09T15:48:04;14.45;;;3.28;;
58272;SDS011;44075;42.436;18.514;2022-09-09T15:50:30;10.85;;;3.33;;
58272;SDS011;44075;42.436;18.514;2022-09-09T15:52:57;8.02;;;3.05;;
58272;SDS011;44075;42.436;18.514;2022-09-09T15:55:23;50.13;;;6.90;;
58272;SDS011;44075;42.436;18.514;2022-09-09T15:57:52;29.48;;;6.03;;
58272;SDS011;44075;42.436;18.514;2022-09-09T16:00:20;22.00;;;5.72;;
58272;SDS011;44075;42.436;18.514;2022-09-09T16:02:47;17.23;;;4.65;;
58272;SDS011;44075;42.436;18.514;2022-09-09T16:05:14;15.07;;;3.70;;
58272;SDS011;44075;42.436;18.514;2022-09-09T16:07:52;9.88;;;3.38;;
58272;SDS011;44075;42.436;18.514;2022-09-09T16:10:18;8.75;;;3.58;;
58272;SDS011;44075;42.436;18.514;2022-09-09T16:12:45;12.95;;;4.45;;
58272;SDS011;44075;42.436;18.514;2022-09-09T16:15:14;12.32;;;3.80;;
58272;SDS011;44075;42.436;18.514;2022-09-09T16:17:47;9.02;;;3.08;;
58272;SDS011;44075;42.436;18.514;2022-09-09T16:20:13;8.55;;;3.40;;
58272;SDS011;44075;42.436;18.514;2022-09-09T16:22:39;16.13;;;3.70;;
58272;SDS011;44075;42.436;18.514;2022-09-09T16:25:07;11.05;;;3.15;;
58272;SDS011;44075;42.436;18.514;2022-09-09T16:27:33;12.38;;;3.17;;
58272;SDS011;44075;42.436;18.514;2022-09-09T16:29:59;10.27;;;3.80;;
58272;SDS011;44075;42.436;18.514;2022-09-09T16:32:29;12.88;;;4.05;;
58272;SDS011;44075;42.436;18.514;2022-09-09T16:35:13;10.85;;;4.40;;
58272;SDS011;44075;42.436;18.514;2022-09-09T16:37:39;11.25;;;4.00;;
58272;SDS011;44075;42.436;18.514;2022-09-09T16:40:07;15.13;;;3.88;;
58272;SDS011;44075;42.436;18.514;2022-09-09T16:42:34;13.95;;;4.20;;
58272;SDS011;44075;42.436;18.514;2022-09-09T16:45:00;9.45;;;3.58;;
58272;SDS011;44075;42.436;18.514;2022-09-09T16:47:26;19.33;;;4.53;;
58272;SDS011;44075;42.436;18.514;2022-09-09T16:49:52;13.55;;;4.28;;
58272;SDS011;44075;42.436;18.514;2022-09-09T16:52:20;15.63;;;4.03;;
58272;SDS011;44075;42.436;18.514;2022-09-09T16:54:49;14.18;;;5.30;;
58272;SDS011;44075;42.436;18.514;2022-09-09T16:57:18;15.68;;;7.40;;
58272;SDS011;44075;42.436;18.514;2022-09-09T16:59:44;16.23;;;4.35;;
58272;SDS011;44075;42.436;18.514;2022-09-09T17:02:10;11.52;;;4.25;;
58272;SDS011;44075;42.436;18.514;2022-09-09T17:04:37;11.25;;;5.00;;
58272;SDS011;44075;42.436;18.514;2022-09-09T17:16:33;12.82;;;3.70;;
58272;SDS011;44075;42.436;18.514;2022-09-09T17:18:59;12.43;;;4.78;;
58272;SDS011;44075;42.436;18.514;2022-09-09T17:21:35;15.55;;;5.70;;
58272;SDS011;44075;42.436;18.514;2022-09-09T17:24:04;11.48;;;4.53;;
58272;SDS011;44075;42.436;18.514;2022-09-09T17:26:31;12.10;;;3.85;;
58272;SDS011;44075;42.436;18.514;2022-09-09T17:29:00;15.90;;;4.95;;
58272;SDS011;44075;42.436;18.514;2022-09-09T17:31:27;11.13;;;4.93;;
58272;SDS011;44075;42.436;18.514;2022-09-09T17:33:54;11.32;;;3.72;;
58272;SDS011;44075;42.436;18.514;2022-09-09T17:38:47;8.70;;;3.72;;
58272;SDS011;44075;42.436;18.514;2022-09-09T17:41:29;16.55;;;4.30;;
58272;SDS011;44075;42.436;18.514;2022-09-09T17:46:27;11.60;;;4.22;;
58272;SDS011;44075;42.436;18.514;2022-09-09T17:48:59;13.98;;;3.60;;
58272;SDS011;44075;42.436;18.514;2022-09-09T17:51:27;12.07;;;3.97;;
58272;SDS011;44075;42.436;18.514;2022-09-09T17:53:55;11.10;;;4.20;;
58272;SDS011;44075;42.436;18.514;2022-09-09T17:56:23;9.88;;;4.22;;